Time;durP1;ratioP1;P1;durP2;ratioP2;P2;SDS_P1;SDS_P2;PMS_P1;PMS_P2;Temp;Humidity;BMP_temperature;BMP_pressure;BME280_temperature;BME280_humidity;BME280_pressure;Samples;Min_cycle;Max_cycle;Signal;HPM_P1;HPM_P2
2023/03/21 00:00:34;;;;;;;3.50;2.35;;;8.20;99.90;;;;;;5009865;28;20093;-57
2023/03/21 00:03:00;;;;;;;3.10;2.10;;;8.20;99.90;;;;;;5009210;28;20113;-60
2023/03/21 00:05:26;;;;;;;3.15;2.42;;;8.10;99.90;;;;;;5008383;28;20117;-58
2023/03/21 00:07:51;;;;;;;2.30;1.80;;;8.00;99.90;;;;;;5009038;28;20029;-58
2023/03/21 00:10:17;;;;;;;4.07;2.03;;;8.00;99.90;;;;;;5008532;28;20490;-59
2023/03/21 00:12:43;;;;;;;5.45;2.15;;;7.90;99.90;;;;;;5009679;28;20022;-58
2023/03/21 00:15:11;;;;;;;3.38;2.50;;;7.80;99.90;;;;;;5008752;28;20034;-59
2023/03/21 00:17:38;;;;;;;3.30;2.17;;;7.80;99.90;;;;;;5007733;28;20033;-58
2023/03/21 00:20:05;;;;;;;3.28;2.80;;;7.70;99.90;;;;;;5008616;28;20026;-59
2023/03/21 00:22:34;;;;;;;3.65;2.22;;;7.60;99.90;;;;;;5008026;28;20469;-58
2023/03/21 00:25:00;;;;;;;3.53;2.80;;;7.60;99.90;;;;;;5009588;28;20053;-59
2023/03/21 00:27:26;;;;;;;4.05;2.83;;;7.60;99.90;;;;;;5008161;28;20477;-60
2023/03/21 00:29:52;;;;;;;3.28;2.78;;;7.60;99.90;;;;;;5008593;28;20385;-58
2023/03/21 00:32:20;;;;;;;3.45;2.60;;;7.60;99.90;;;;;;5008603;28;20110;-59
2023/03/21 00:34:46;;;;;;;3.97;3.00;;;7.60;99.90;;;;;;5008165;28;20088;-59
2023/03/21 00:37:15;;;;;;;5.22;2.90;;;7.60;99.90;;;;;;5008081;28;20108;-58
2023/03/21 00:39:47;;;;;;;3.75;2.40;;;7.60;99.90;;;;;;5005513;28;20040;-58
2023/03/21 00:42:14;;;;;;;4.90;3.35;;;7.60;99.90;;;;;;5008388;28;20084;-59
2023/03/21 00:44:40;;;;;;;6.75;3.30;;;7.60;99.90;;;;;;5007891;28;20057;-58
2023/03/21 00:47:06;;;;;;;3.13;2.75;;;7.60;99.90;;;;;;5008072;28;20497;-59
2023/03/21 00:49:37;;;;;;;4.22;2.95;;;7.50;99.90;;;;;;5008530;28;20041;-59
2023/03/21 00:52:05;;;;;;;5.78;3.05;;;7.40;99.90;;;;;;5007320;28;20037;-59
2023/03/21 00:54:31;;;;;;;3.20;2.90;;;7.40;99.90;;;;;;5008801;28;20033;-59
2023/03/21 00:56:57;;;;;;;4.22;3.58;;;7.30;99.90;;;;;;5005845;28;20025;-59
2023/03/21 00:59:23;;;;;;;9.35;6.35;;;7.30;99.90;;;;;;5008516;28;20421;-58
2023/03/21 01:01:49;;;;;;;7.53;6.35;;;7.20;99.90;;;;;;5007009;28;20022;-59
2023/03/21 01:04:15;;;;;;;9.93;5.93;;;7.20;99.90;;;;;;5007636;28;20021;-58
2023/03/21 01:06:42;;;;;;;6.72;5.82;;;7.20;99.90;;;;;;5008615;28;20108;-60
2023/03/21 01:09:16;;;;;;;7.70;5.30;;;7.10;99.90;;;;;;5006385;28;20113;-59
2023/03/21 01:11:43;;;;;;;9.88;6.90;;;7.10;99.90;;;;;;5008303;28;20038;-59
2023/03/21 01:14:10;;;;;;;10.18;8.13;;;7.00;99.90;;;;;;5007812;28;20105;-60
2023/03/21 01:16:36;;;;;;;11.30;8.38;;;7.00;99.90;;;;;;5008040;28;20038;-60
2023/03/21 01:19:03;;;;;;;8.02;6.93;;;7.00;99.90;;;;;;5008832;28;20100;-59
2023/03/21 01:21:29;;;;;;;7.05;6.35;;;6.90;99.90;;;;;;5007952;28;20512;-59
2023/03/21 01:23:54;;;;;;;6.90;5.07;;;6.90;99.90;;;;;;5008747;28;20034;-57
2023/03/21 01:26:20;;;;;;;7.38;4.90;;;6.90;99.90;;;;;;5007957;28;20041;-58
2023/03/21 01:28:46;;;;;;;5.55;4.93;;;6.80;99.90;;;;;;5008510;28;20390;-59
2023/03/21 01:31:14;;;;;;;10.05;4.78;;;6.80;99.90;;;;;;5007928;28;20485;-57
2023/03/21 01:33:39;;;;;;;5.63;4.78;;;6.70;99.90;;;;;;5007521;28;20022;-59
2023/03/21 01:36:06;;;;;;;5.63;3.90;;;6.70;99.90;;;;;;5007937;28;20524;-59
2023/03/21 01:38:32;;;;;;;4.78;4.15;;;6.60;99.90;;;;;;5006970;28;20100;-60
2023/03/21 01:41:03;;;;;;;5.20;3.97;;;6.60;99.90;;;;;;5008250;28;20033;-58
2023/03/21 01:43:32;;;;;;;7.05;5.10;;;6.50;99.90;;;;;;5007551;28;20040;-59
2023/03/21 01:46:24;;;;;;;5.30;4.18;;;6.40;99.90;;;;;;5006863;28;20025;-56
2023/03/21 01:49:00;;;;;;;7.55;3.90;;;6.40;99.90;;;;;;5007207;28;20045;-59
2023/03/21 01:51:27;;;;;;;4.20;3.78;;;6.30;99.90;;;;;;4988951;28;20048;-59
2023/03/21 01:53:54;;;;;;;4.68;3.80;;;6.30;99.90;;;;;;5007850;28;20097;-59
2023/03/21 01:56:36;;;;;;;6.72;4.47;;;6.30;99.90;;;;;;5006901;28;20038;-59
2023/03/21 01:59:16;;;;;;;5.63;4.05;;;6.20;99.90;;;;;;5006971;28;20568;-58
2023/03/21 02:01:43;;;;;;;12.27;4.70;;;6.30;99.90;;;;;;5006530;28;20041;-59
2023/03/21 02:04:10;;;;;;;6.15;4.18;;;6.30;99.90;;;;;;5007333;28;20021;-59
2023/03/21 02:06:50;;;;;;;7.72;4.35;;;6.30;99.90;;;;;;5007857;28;20072;-59
2023/03/21 02:09:21;;;;;;;6.13;3.58;;;6.40;99.90;;;;;;5007829;28;20037;-58
2023/03/21 02:11:47;;;;;;;5.20;3.95;;;6.40;99.90;;;;;;5007719;28;20026;-58
2023/03/21 02:14:16;;;;;;;4.43;3.83;;;6.40;99.90;;;;;;5006688;28;20033;-59
2023/03/21 02:16:56;;;;;;;5.05;4.18;;;6.50;99.90;;;;;;5007522;28;20026;-58
2023/03/21 02:19:43;;;;;;;4.07;3.67;;;6.50;99.90;;;;;;5006166;28;20022;-58
2023/03/21 02:22:21;;;;;;;4.03;3.50;;;6.40;99.90;;;;;;5006984;28;20076;-59
2023/03/21 02:24:58;;;;;;;5.85;3.80;;;6.30;99.90;;;;;;5007562;28;20022;-58
2023/03/21 02:27:26;;;;;;;5.78;4.47;;;6.30;99.90;;;;;;5007239;28;20037;-57
2023/03/21 02:30:30;;;;;;;5.50;3.80;;;6.30;99.90;;;;;;5006768;28;20034;-58
2023/03/21 02:33:33;;;;;;;4.20;3.75;;;6.30;99.90;;;;;;4965665;28;20077;-59
2023/03/21 02:36:37;;;;;;;5.88;5.18;;;6.20;99.90;;;;;;5006530;28;20061;-58
2023/03/21 02:39:11;;;;;;;5.43;4.72;;;6.20;99.90;;;;;;4935698;28;20036;-58
2023/03/21 02:41:57;;;;;;;8.85;5.72;;;6.20;99.90;;;;;;5006296;28;20505;-59
2023/03/21 02:44:41;;;;;;;5.60;4.95;;;6.20;99.90;;;;;;5007092;28;20057;-59
2023/03/21 02:47:28;;;;;;;6.03;4.80;;;6.10;99.90;;;;;;5006457;28;20094;-58
2023/03/21 02:50:06;;;;;;;8.00;5.05;;;6.00;99.90;;;;;;5008413;28;20030;-58
2023/03/21 02:52:35;;;;;;;6.13;4.68;;;6.00;99.90;;;;;;5010282;28;20045;-59
2023/03/21 02:55:03;;;;;;;5.28;4.47;;;6.00;99.90;;;;;;5010310;28;20156;-59
2023/03/21 02:57:30;;;;;;;6.47;4.70;;;6.00;99.90;;;;;;5010515;28;20132;-58
2023/03/21 02:59:56;;;;;;;6.32;5.32;;;5.90;99.90;;;;;;5010518;28;20030;-58
2023/03/21 03:02:27;;;;;;;6.43;5.28;;;5.90;99.90;;;;;;5010630;28;20037;-58
2023/03/21 03:04:54;;;;;;;5.68;5.18;;;5.90;99.90;;;;;;5010291;28;20030;-57
2023/03/21 03:07:52;;;;;;;12.73;6.25;;;5.90;99.90;;;;;;4993958;28;20034;-58
2023/03/21 03:10:29;;;;;;;7.85;5.80;;;5.80;99.90;;;;;;5010857;28;20026;-58
2023/03/21 03:13:06;;;;;;;8.05;6.05;;;5.80;99.90;;;;;;5011869;28;20068;-59
2023/03/21 03:15:46;;;;;;;9.40;7.30;;;5.80;99.90;;;;;;5009749;28;20582;-58
2023/03/21 03:18:30;;;;;;;9.35;5.85;;;5.80;99.90;;;;;;5010434;28;20072;-59
2023/03/21 03:20:55;;;;;;;8.27;5.72;;;5.80;99.90;;;;;;5009664;28;20060;-59
2023/03/21 03:23:45;;;;;;;9.20;5.45;;;5.80;99.90;;;;;;5010253;28;20509;-58
2023/03/21 03:26:45;;;;;;;6.53;5.80;;;5.80;99.90;;;;;;5009337;28;20022;-57
2023/03/21 03:29:16;;;;;;;7.43;5.65;;;5.70;99.90;;;;;;4956598;28;20166;-59
2023/03/21 03:31:55;;;;;;;5.00;4.50;;;5.70;99.90;;;;;;5008446;28;20112;-59
2023/03/21 03:34:25;;;;;;;6.53;5.07;;;5.70;99.90;;;;;;5009498;28;20038;-59
2023/03/21 03:36:55;;;;;;;6.13;5.32;;;5.70;99.90;;;;;;5011016;28;20044;-59
2023/03/21 03:39:26;;;;;;;7.80;4.88;;;5.70;99.90;;;;;;5009335;28;20030;-59
2023/03/21 03:42:04;;;;;;;6.70;5.13;;;5.70;99.90;;;;;;5009612;28;20112;-58
2023/03/21 03:44:29;;;;;;;5.20;4.65;;;5.70;99.90;;;;;;5009008;28;20366;-58
2023/03/21 03:47:05;;;;;;;9.88;5.55;;;5.70;99.90;;;;;;5008832;28;20030;-59
2023/03/21 03:49:58;;;;;;;8.82;4.80;;;5.80;99.90;;;;;;4992148;28;20077;-59
2023/03/21 03:52:30;;;;;;;6.10;5.50;;;5.80;99.90;;;;;;4998430;28;20134;-58
2023/03/21 03:54:57;;;;;;;4.90;4.03;;;5.80;99.90;;;;;;5009760;28;20402;-58
2023/03/21 03:57:25;;;;;;;5.78;4.30;;;5.90;99.90;;;;;;5006432;28;20108;-60
2023/03/21 03:59:51;;;;;;;5.07;4.32;;;5.90;99.90;;;;;;5009725;28;20041;-59
2023/03/21 04:02:16;;;;;;;7.00;3.95;;;5.90;99.90;;;;;;5008530;28;20041;-60
2023/03/21 04:04:42;;;;;;;5.82;4.72;;;5.90;99.90;;;;;;5008906;28;20030;-59
2023/03/21 04:07:08;;;;;;;4.82;3.85;;;5.80;99.90;;;;;;5009062;28;20037;-59
2023/03/21 04:09:34;;;;;;;5.60;4.32;;;5.80;99.90;;;;;;5009634;28;20017;-59
2023/03/21 04:12:00;;;;;;;4.90;4.15;;;5.80;99.90;;;;;;5009094;28;20045;-58
2023/03/21 04:14:25;;;;;;;6.40;4.40;;;5.80;99.90;;;;;;5009425;28;20037;-60
2023/03/21 04:16:51;;;;;;;4.70;3.72;;;5.80;99.90;;;;;;5008408;28;20030;-60
2023/03/21 04:19:17;;;;;;;5.57;4.50;;;5.80;99.90;;;;;;5009204;28;20429;-58
2023/03/21 04:21:45;;;;;;;5.53;4.15;;;5.80;99.90;;;;;;5009276;28;20418;-57
2023/03/21 04:24:12;;;;;;;4.40;4.00;;;5.80;99.90;;;;;;5008610;28;20525;-58
2023/03/21 04:26:38;;;;;;;7.53;4.70;;;5.80;99.90;;;;;;5007753;28;20076;-58
2023/03/21 04:29:04;;;;;;;7.05;4.65;;;5.80;99.90;;;;;;5008977;28;20029;-58
2023/03/21 04:31:32;;;;;;;7.63;4.45;;;5.90;99.90;;;;;;5009391;28;20026;-56
2023/03/21 04:33:59;;;;;;;9.45;5.25;;;5.90;99.90;;;;;;5008651;28;20022;-59
2023/03/21 04:36:37;;;;;;;5.50;3.90;;;5.90;99.90;;;;;;5008194;28;20026;-58
2023/03/21 04:39:08;;;;;;;5.72;3.75;;;5.90;99.90;;;;;;5007580;28;20079;-58
2023/03/21 04:41:36;;;;;;;8.18;4.20;;;5.90;99.90;;;;;;5008190;28;20029;-58
2023/03/21 04:44:02;;;;;;;10.75;4.70;;;5.90;99.90;;;;;;5007603;28;20033;-58
2023/03/21 04:46:27;;;;;;;4.90;4.00;;;5.90;99.90;;;;;;5008175;28;20105;-57
2023/03/21 04:48:53;;;;;;;9.07;5.10;;;5.80;99.90;;;;;;5010550;28;20192;-58
2023/03/21 04:51:19;;;;;;;5.93;4.80;;;5.80;99.90;;;;;;5008346;28;20069;-59
2023/03/21 04:53:48;;;;;;;5.75;4.22;;;5.80;99.90;;;;;;5008970;28;20470;-58
2023/03/21 04:56:14;;;;;;;5.35;4.57;;;5.80;99.90;;;;;;5008071;28;20033;-58
2023/03/21 04:58:41;;;;;;;6.60;4.05;;;5.80;99.90;;;;;;5008199;28;20141;-58
2023/03/21 05:01:07;;;;;;;4.70;4.18;;;5.80;99.90;;;;;;5008275;28;20038;-58
2023/03/21 05:03:38;;;;;;;5.22;3.95;;;5.80;99.90;;;;;;5007958;28;20123;-59
2023/03/21 05:06:07;;;;;;;6.95;4.05;;;5.80;99.90;;;;;;5006921;28;20023;-59
2023/03/21 05:08:34;;;;;;;4.38;3.55;;;5.80;99.90;;;;;;5007026;28;20030;-59
2023/03/21 05:11:01;;;;;;;6.00;4.38;;;5.80;99.90;;;;;;5008457;28;20079;-59
2023/03/21 05:13:27;;;;;;;6.15;4.28;;;5.80;99.90;;;;;;5007405;28;20041;-58
2023/03/21 05:15:52;;;;;;;5.72;4.15;;;5.80;99.90;;;;;;5008490;28;20030;-60
2023/03/21 05:18:23;;;;;;;6.22;5.60;;;5.90;99.90;;;;;;5008422;28;20057;-59
2023/03/21 05:20:53;;;;;;;6.03;5.43;;;5.90;99.90;;;;;;5007862;28;20042;-59
2023/03/21 05:23:20;;;;;;;11.05;5.30;;;5.90;99.90;;;;;;5007816;28;20045;-58
2023/03/21 05:25:45;;;;;;;6.97;6.15;;;5.90;99.90;;;;;;5007880;28;20034;-58
2023/03/21 05:28:11;;;;;;;4.22;3.83;;;6.00;99.90;;;;;;5007785;28;20087;-58
2023/03/21 05:30:37;;;;;;;5.65;4.45;;;6.00;99.90;;;;;;5008530;28;20033;-57
2023/03/21 05:33:03;;;;;;;6.18;4.68;;;6.00;99.90;;;;;;5007411;28;20568;-59
2023/03/21 05:35:29;;;;;;;7.43;5.00;;;6.00;99.90;;;;;;5007958;28;20030;-58
2023/03/21 05:37:54;;;;;;;6.65;4.97;;;6.10;99.90;;;;;;5007465;28;20026;-58
2023/03/21 05:40:21;;;;;;;8.15;5.28;;;6.10;99.90;;;;;;5007804;28;20088;-59
2023/03/21 05:42:47;;;;;;;5.05;4.55;;;6.10;99.90;;;;;;5008283;28;20038;-58
2023/03/21 05:45:14;;;;;;;4.90;3.80;;;6.20;99.90;;;;;;5006948;28;20030;-59
2023/03/21 05:47:39;;;;;;;5.20;4.70;;;6.20;99.90;;;;;;5007457;28;20030;-58
2023/03/21 05:50:06;;;;;;;4.45;4.05;;;6.20;99.90;;;;;;5007174;28;20076;-59
2023/03/21 05:52:31;;;;;;;4.88;4.38;;;6.30;99.90;;;;;;5007104;28;20045;-58
2023/03/21 05:54:57;;;;;;;5.75;5.03;;;6.40;99.90;;;;;;5008261;28;20030;-58
2023/03/21 05:57:25;;;;;;;5.10;4.53;;;6.40;99.90;;;;;;5007033;28;20589;-58
2023/03/21 05:59:50;;;;;;;4.55;4.15;;;6.50;99.90;;;;;;5007733;28;20095;-59
2023/03/21 06:02:16;;;;;;;6.85;3.80;;;6.50;99.90;;;;;;5007235;28;20498;-58
2023/03/21 06:04:41;;;;;;;6.50;3.90;;;6.50;99.90;;;;;;5008006;28;20022;-59
2023/03/21 06:07:07;;;;;;;4.57;3.55;;;6.60;99.90;;;;;;5006891;28;20030;-60
2023/03/21 06:09:33;;;;;;;4.38;3.42;;;6.60;99.90;;;;;;5008101;28;20010;-59
2023/03/21 06:11:59;;;;;;;7.75;3.95;;;6.60;99.90;;;;;;5007324;28;20041;-58
2023/03/21 06:14:25;;;;;;;4.53;3.28;;;6.60;99.90;;;;;;5007310;28;20030;-58
2023/03/21 06:16:52;;;;;;;6.00;3.83;;;6.60;99.90;;;;;;5007123;28;20030;-59
2023/03/21 06:19:19;;;;;;;4.00;3.60;;;6.70;99.90;;;;;;5006776;28;20026;-58
2023/03/21 06:21:45;;;;;;;5.70;3.75;;;6.70;99.90;;;;;;5007499;28;20481;-58
2023/03/21 06:24:11;;;;;;;4.55;2.92;;;6.70;99.90;;;;;;5007843;28;20080;-58
2023/03/21 06:26:37;;;;;;;5.63;4.13;;;6.80;99.90;;;;;;5011944;28;20091;-59
2023/03/21 06:29:03;;;;;;;4.05;3.05;;;6.90;99.90;;;;;;5012311;28;20060;-58
2023/03/21 06:31:29;;;;;;;5.72;3.60;;;7.00;99.90;;;;;;5011473;28;20490;-59
2023/03/21 06:33:54;;;;;;;4.38;3.70;;;7.10;99.90;;;;;;5012870;28;20061;-57
2023/03/21 06:36:20;;;;;;;9.93;3.85;;;7.20;99.90;;;;;;5011361;28;20026;-58
2023/03/21 06:38:47;;;;;;;4.88;3.63;;;7.30;99.90;;;;;;5011784;28;20026;-59
2023/03/21 06:41:13;;;;;;;4.80;3.95;;;7.40;99.90;;;;;;5010918;28;20037;-59
2023/03/21 06:43:39;;;;;;;4.30;3.45;;;7.50;99.90;;;;;;5009928;28;20030;-60
2023/03/21 06:46:04;;;;;;;3.75;3.25;;;7.60;99.90;;;;;;5010593;28;20564;-59
2023/03/21 06:48:31;;;;;;;3.45;3.15;;;7.70;99.90;;;;;;5009995;28;20037;-58
2023/03/21 06:50:57;;;;;;;4.07;3.50;;;7.80;99.90;;;;;;5010735;28;20045;-59
2023/03/21 06:53:26;;;;;;;7.85;3.78;;;7.90;99.90;;;;;;5009854;28;20042;-60
2023/03/21 06:55:53;;;;;;;5.47;4.00;;;8.00;99.90;;;;;;5009897;28;20033;-59
2023/03/21 06:58:19;;;;;;;5.38;3.90;;;8.10;99.90;;;;;;5009520;28;20208;-58
2023/03/21 07:00:45;;;;;;;6.10;4.43;;;8.20;99.90;;;;;;5010419;28;20100;-59
2023/03/21 07:03:11;;;;;;;26.77;15.57;;;8.10;99.90;;;;;;5009647;28;20053;-60
2023/03/21 07:05:38;;;;;;;12.52;10.48;;;8.20;99.90;;;;;;5006991;28;20049;-58
2023/03/21 07:08:04;;;;;;;4.07;3.67;;;8.30;99.90;;;;;;5010281;28;20045;-58
2023/03/21 07:10:30;;;;;;;4.50;3.88;;;8.30;99.90;;;;;;5009514;28;20033;-59
2023/03/21 07:12:58;;;;;;;5.40;3.72;;;8.40;99.90;;;;;;5010937;28;20034;-58
2023/03/21 07:15:24;;;;;;;4.85;3.10;;;8.50;99.90;;;;;;5010331;28;20473;-58
2023/03/21 07:17:50;;;;;;;3.85;3.25;;;8.60;99.90;;;;;;5009774;28;20034;-58
2023/03/21 07:20:16;;;;;;;5.43;3.63;;;8.60;99.90;;;;;;5009555;28;20037;-58
2023/03/21 07:22:42;;;;;;;4.30;3.80;;;8.80;99.90;;;;;;5009411;28;20022;-58
2023/03/21 07:25:09;;;;;;;4.20;3.70;;;8.90;99.90;;;;;;5010089;28;20049;-58
2023/03/21 07:27:35;;;;;;;5.15;4.15;;;8.90;99.90;;;;;;4991285;28;20591;-58
2023/03/21 07:30:02;;;;;;;5.65;3.92;;;9.00;99.90;;;;;;5009711;28;20034;-59
2023/03/21 07:32:32;;;;;;;4.55;3.88;;;9.00;99.90;;;;;;5009543;28;20036;-58
2023/03/21 07:34:58;;;;;;;8.98;3.72;;;9.10;99.90;;;;;;5008922;28;20029;-58
2023/03/21 07:37:24;;;;;;;5.53;3.97;;;9.20;99.90;;;;;;5008383;28;20037;-58
2023/03/21 07:39:50;;;;;;;6.07;4.10;;;9.30;99.90;;;;;;5009334;28;20052;-58
2023/03/21 07:42:16;;;;;;;11.13;4.10;;;9.30;99.90;;;;;;5009204;28;20062;-59
2023/03/21 07:44:42;;;;;;;6.60;4.88;;;9.40;99.90;;;;;;5008736;28;20069;-59
2023/03/21 07:47:07;;;;;;;5.78;3.67;;;9.50;99.90;;;;;;5008529;28;20034;-59
2023/03/21 07:49:33;;;;;;;6.50;3.97;;;9.70;99.90;;;;;;5009404;28;20432;-58
2023/03/21 07:52:00;;;;;;;6.97;4.30;;;9.70;99.90;;;;;;5009102;28;20534;-58
2023/03/21 07:54:27;;;;;;;7.13;4.43;;;9.80;99.90;;;;;;5007384;28;20026;-58
2023/03/21 07:56:54;;;;;;;5.75;4.63;;;9.80;99.90;;;;;;5008268;28;20077;-59
2023/03/21 07:59:19;;;;;;;5.78;3.92;;;9.90;99.90;;;;;;4975431;28;20642;-58
2023/03/21 08:01:45;;;;;;;7.47;3.95;;;10.00;99.90;;;;;;5008493;28;20033;-59
2023/03/21 08:04:11;;;;;;;7.13;3.60;;;10.10;99.90;;;;;;4990672;28;20469;-58
2023/03/21 08:06:37;;;;;;;6.13;4.00;;;10.20;99.90;;;;;;5009021;28;20022;-59
2023/03/21 08:09:02;;;;;;;6.65;3.58;;;10.40;99.90;;;;;;5007830;28;20026;-58
2023/03/21 08:11:31;;;;;;;4.88;3.60;;;10.60;99.90;;;;;;5011380;28;20422;-58
2023/03/21 08:13:58;;;;;;;6.65;3.78;;;10.90;99.90;;;;;;5009062;28;20096;-58
2023/03/21 08:16:25;;;;;;;5.32;3.92;;;11.00;99.90;;;;;;5008947;28;20034;-59
2023/03/21 08:18:50;;;;;;;5.07;3.20;;;11.00;99.90;;;;;;5009454;28;20025;-59
2023/03/21 08:21:16;;;;;;;4.38;3.28;;;11.10;99.90;;;;;;4991386;28;20026;-59
2023/03/21 08:23:42;;;;;;;5.32;3.20;;;11.00;99.90;;;;;;5009412;28;20064;-59
2023/03/21 08:26:09;;;;;;;9.25;3.38;;;11.00;99.90;;;;;;4990610;28;20080;-58
2023/03/21 08:28:36;;;;;;;5.13;3.30;;;10.90;99.90;;;;;;5009370;28;20038;-59
2023/03/21 08:31:07;;;;;;;6.40;3.60;;;10.90;99.90;;;;;;5009421;28;20022;-59
2023/03/21 08:33:33;;;;;;;3.42;2.60;;;11.10;99.90;;;;;;5008763;28;20440;-59
2023/03/21 08:35:59;;;;;;;4.75;3.00;;;11.30;99.90;;;;;;5008888;28;20083;-59
2023/03/21 08:38:28;;;;;;;5.70;3.13;;;11.40;99.90;;;;;;5007781;28;20037;-59
2023/03/21 08:40:59;;;;;;;3.70;3.08;;;11.40;99.90;;;;;;5008829;28;20034;-58
2023/03/21 08:43:25;;;;;;;12.73;3.40;;;11.50;99.90;;;;;;5007595;28;20058;-59
2023/03/21 08:45:51;;;;;;;4.93;3.35;;;11.60;99.90;;;;;;5007525;28;20072;-58
2023/03/21 08:48:16;;;;;;;4.35;3.15;;;11.80;99.90;;;;;;5007537;28;20544;-59
2023/03/21 08:50:42;;;;;;;4.78;3.38;;;11.90;99.90;;;;;;5008202;28;20022;-59
2023/03/21 08:53:08;;;;;;;7.43;3.00;;;12.00;99.90;;;;;;5008014;28;20045;-59
2023/03/21 08:55:34;;;;;;;6.47;2.75;;;12.10;99.90;;;;;;4989603;28;20124;-59
2023/03/21 08:58:00;;;;;;;5.32;3.15;;;12.00;99.90;;;;;;5009674;28;20037;-59
2023/03/21 09:00:27;;;;;;;6.00;2.85;;;12.00;99.90;;;;;;5004250;28;20065;-59
2023/03/21 09:02:53;;;;;;;4.80;2.60;;;12.20;99.90;;;;;;5008516;28;20060;-59
2023/03/21 09:05:20;;;;;;;3.90;2.38;;;12.40;99.90;;;;;;5008502;28;20132;-60
2023/03/21 09:07:46;;;;;;;7.65;3.13;;;12.60;99.90;;;;;;5008082;28;20018;-59
2023/03/21 09:10:16;;;;;;;5.82;3.00;;;12.70;99.90;;;;;;5007145;28;20413;-59
2023/03/21 09:12:42;;;;;;;3.25;2.80;;;12.80;99.90;;;;;;5007631;28;20029;-60
2023/03/21 09:15:10;;;;;;;4.60;2.45;;;12.90;99.90;;;;;;5007727;28;20014;-59
2023/03/21 09:17:42;;;;;;;8.10;2.65;;;13.10;99.50;;;;;;5007282;28;20120;-58
2023/03/21 09:20:17;;;;;;;;;;;13.40;98.80;;;;;;5007086;28;20512;-60
2023/03/21 09:22:46;;;;;;;4.38;2.53;;;13.40;99.10;;;;;;5008545;28;20000;-59
2023/03/21 09:25:14;;;;;;;3.78;2.60;;;13.60;97.60;;;;;;5008259;28;20045;-59
2023/03/21 09:27:39;;;;;;;4.47;2.67;;;13.90;96.50;;;;;;5007405;28;20045;-60
2023/03/21 09:30:06;;;;;;;7.75;2.78;;;14.40;93.90;;;;;;5007884;28;20057;-59
2023/03/21 09:32:33;;;;;;;3.92;2.47;;;15.00;93.40;;;;;;5008401;28;20057;-59
2023/03/21 09:34:59;;;;;;;5.53;2.55;;;15.50;92.40;;;;;;5008187;28;20018;-59
2023/03/21 09:37:24;;;;;;;6.25;3.25;;;16.00;91.40;;;;;;5009008;28;20030;-61
2023/03/21 09:39:51;;;;;;;3.80;2.47;;;16.80;86.40;;;;;;5008471;28;20030;-59
2023/03/21 09:42:45;;;;;;;4.35;2.72;;;17.60;82.80;;;;;;5008501;28;20516;-59
2023/03/21 09:45:15;;;;;;;4.22;2.58;;;18.60;80.70;;;;;;5006474;28;20038;-58
2023/03/21 09:47:51;;;;;;;3.35;2.38;;;19.80;72.00;;;;;;5006992;28;20030;-60
2023/03/21 09:50:23;;;;;;;6.72;2.90;;;20.50;68.50;;;;;;5007142;28;20033;-59
2023/03/21 09:53:15;;;;;;;8.43;2.42;;;19.90;70.70;;;;;;5007895;28;20034;-59
2023/03/21 09:55:41;;;;;;;6.70;2.50;;;19.80;71.50;;;;;;5007429;28;20038;-59
2023/03/21 09:58:19;;;;;;;4.80;2.28;;;20.40;66.10;;;;;;5008840;28;20037;-59
2023/03/21 10:00:48;;;;;;;3.63;2.45;;;20.30;63.90;;;;;;5014685;28;20397;-60
2023/03/21 10:03:25;;;;;;;5.95;2.05;;;20.00;66.50;;;;;;5014386;28;20037;-59
2023/03/21 10:05:57;;;;;;;4.97;2.60;;;20.00;62.70;;;;;;5013605;28;20725;-60
2023/03/21 10:08:29;;;;;;;5.82;2.20;;;19.40;67.60;;;;;;5013897;28;20447;-59
2023/03/21 10:11:12;;;;;;;3.65;1.85;;;19.60;69.50;;;;;;5014285;28;20041;-59
2023/03/21 10:13:56;;;;;;;4.32;1.70;;;19.80;67.20;;;;;;5013135;28;20053;-59
2023/03/21 10:16:31;;;;;;;5.35;2.33;;;19.50;65.00;;;;;;5013107;28;20053;-58
2023/03/21 10:19:01;;;;;;;3.45;1.75;;;19.40;65.50;;;;;;5013726;28;20022;-59
2023/03/21 10:21:28;;;;;;;3.83;2.10;;;19.10;64.20;;;;;;5013716;28;20040;-60
2023/03/21 10:23:56;;;;;;;3.75;2.05;;;19.00;63.80;;;;;;5014138;28;20045;-60
2023/03/21 10:26:25;;;;;;;4.22;2.05;;;19.10;65.80;;;;;;5014067;28;20030;-60
2023/03/21 10:28:53;;;;;;;5.15;1.85;;;19.50;64.20;;;;;;5013895;28;20045;-59
2023/03/21 10:31:24;;;;;;;2.28;1.70;;;19.50;64.70;;;;;;5013447;28;20033;-60
2023/03/21 10:33:51;;;;;;;4.75;2.45;;;19.00;65.30;;;;;;5014557;28;21547;-60
2023/03/21 10:36:24;;;;;;;2.63;1.50;;;18.70;64.80;;;;;;5013417;28;20108;-59
2023/03/21 10:39:00;;;;;;;3.95;1.85;;;18.50;63.70;;;;;;5013151;28;20080;-59
2023/03/21 10:41:26;;;;;;;4.93;2.08;;;18.60;68.00;;;;;;5013017;28;20502;-60
2023/03/21 10:44:16;;;;;;;3.70;1.88;;;18.90;67.80;;;;;;5014171;28;20037;-60
2023/03/21 10:46:56;;;;;;;2.57;1.70;;;18.90;67.60;;;;;;5011599;28;20030;-59
2023/03/21 10:49:24;;;;;;;3.63;1.70;;;19.10;66.30;;;;;;5013829;28;20585;-60
2023/03/21 10:51:56;;;;;;;3.67;2.00;;;19.20;65.10;;;;;;5013597;28;20099;-60
2023/03/21 10:54:28;;;;;;;3.85;1.85;;;19.30;66.90;;;;;;5013559;28;20498;-60
2023/03/21 10:56:58;;;;;;;2.40;1.35;;;19.20;62.00;;;;;;5013278;28;20034;-60
2023/03/21 10:59:25;;;;;;;2.95;1.73;;;19.20;65.90;;;;;;5013569;28;20034;-59
2023/03/21 11:01:54;;;;;;;2.13;1.48;;;19.30;67.00;;;;;;5012398;28;20033;-60
2023/03/21 11:04:29;;;;;;;4.97;2.45;;;19.30;63.40;;;;;;5013330;28;20438;-60
2023/03/21 11:06:58;;;;;;;2.40;1.38;;;19.10;63.00;;;;;;5014060;28;20022;-59
2023/03/21 11:09:41;;;;;;;7.75;2.42;;;19.10;63.50;;;;;;5012989;28;20034;-60
2023/03/21 11:12:31;;;;;;;4.35;2.03;;;18.50;67.30;;;;;;5009535;28;20037;-60
2023/03/21 11:14:57;;;;;;;3.38;1.85;;;18.00;69.10;;;;;;5008823;28;20060;-59
2023/03/21 11:17:27;;;;;;;3.63;1.80;;;17.70;70.20;;;;;;5010194;28;20061;-59
2023/03/21 11:19:53;;;;;;;6.25;2.38;;;17.50;70.60;;;;;;5008720;28;20164;-60
2023/03/21 11:22:24;;;;;;;3.20;1.98;;;17.40;71.60;;;;;;5010177;28;20955;-59
2023/03/21 11:24:55;;;;;;;3.60;2.10;;;17.50;69.80;;;;;;5010579;28;20557;-59
2023/03/21 11:27:23;;;;;;;4.88;2.25;;;17.40;74.50;;;;;;5007872;28;20042;-59
2023/03/21 11:29:50;;;;;;;3.45;2.47;;;17.30;77.20;;;;;;5010257;28;20045;-60
2023/03/21 11:32:20;;;;;;;2.25;1.83;;;17.40;72.10;;;;;;5009250;28;20030;-59
2023/03/21 11:35:00;;;;;;;4.38;1.85;;;17.50;73.00;;;;;;5010424;28;20490;-59
2023/03/21 11:37:38;;;;;;;6.15;1.70;;;17.60;72.60;;;;;;5010256;28;20030;-58
2023/03/21 11:40:12;;;;;;;3.65;2.03;;;17.50;72.30;;;;;;5010977;28;20029;-59
2023/03/21 11:42:50;;;;;;;3.85;2.10;;;17.20;71.80;;;;;;5009852;28;20046;-58
2023/03/21 11:45:34;;;;;;;4.20;1.90;;;16.90;71.60;;;;;;5008616;28;20451;-59
2023/03/21 11:48:04;;;;;;;4.78;2.28;;;16.60;81.20;;;;;;5009919;28;20116;-58
2023/03/21 11:50:43;;;;;;;3.90;2.17;;;16.60;81.80;;;;;;5009748;28;20556;-58
2023/03/21 11:53:38;;;;;;;3.75;1.80;;;16.40;79.80;;;;;;5009780;28;20036;-58
2023/03/21 11:56:27;;;;;;;3.92;1.90;;;16.50;85.00;;;;;;5009144;28;20022;-58
2023/03/21 11:59:15;;;;;;;2.83;1.90;;;16.50;77.80;;;;;;5009599;28;20038;-59
2023/03/21 12:01:49;;;;;;;5.90;1.73;;;16.50;76.50;;;;;;5009542;28;20502;-58
2023/03/21 12:04:36;;;;;;;5.20;2.35;;;16.60;79.20;;;;;;5009589;28;20022;-59
2023/03/21 12:07:12;;;;;;;6.43;2.17;;;16.70;81.40;;;;;;5009168;28;20042;-59
2023/03/21 12:09:43;;;;;;;3.75;1.83;;;16.80;80.40;;;;;;5009872;28;20489;-59
2023/03/21 12:12:11;;;;;;;2.85;1.45;;;16.90;75.80;;;;;;5008467;28;20180;-59
2023/03/21 12:15:05;;;;;;;2.60;1.35;;;17.10;77.00;;;;;;5009640;28;20037;-59
2023/03/21 12:17:36;;;;;;;4.05;2.03;;;17.40;71.50;;;;;;5007723;28;20022;-59
2023/03/21 12:20:30;;;;;;;4.05;1.77;;;17.40;70.60;;;;;;4981744;28;20071;-59
2023/03/21 12:23:22;;;;;;;5.15;1.90;;;17.40;72.30;;;;;;5008163;28;20470;-59
2023/03/21 12:26:25;;;;;;;3.75;1.92;;;17.30;71.30;;;;;;5009100;28;20113;-59
2023/03/21 12:28:57;;;;;;;5.00;2.50;;;17.40;71.50;;;;;;5008129;28;20473;-59
2023/03/21 12:31:51;;;;;;;5.30;2.38;;;17.20;70.20;;;;;;5008960;28;20068;-59
2023/03/21 12:34:32;;;;;;;5.03;2.20;;;17.20;74.00;;;;;;5005953;28;20100;-60
2023/03/21 12:37:03;;;;;;;3.08;2.30;;;17.30;71.00;;;;;;5008663;28;20057;-60
2023/03/21 12:39:35;;;;;;;4.70;2.47;;;17.40;69.70;;;;;;5008610;28;20057;-58
2023/03/21 12:42:12;;;;;;;4.07;2.50;;;17.50;70.80;;;;;;5008755;28;20044;-59
2023/03/21 12:44:46;;;;;;;5.18;2.85;;;17.60;72.00;;;;;;5008773;28;20023;-59
2023/03/21 12:47:24;;;;;;;5.70;2.50;;;17.80;72.50;;;;;;5007609;28;20026;-59
2023/03/21 12:49:59;;;;;;;3.97;2.50;;;17.90;71.50;;;;;;5008891;28;20641;-58
2023/03/21 12:52:42;;;;;;;4.53;3.17;;;17.90;76.70;;;;;;5007578;28;20030;-59
2023/03/21 12:55:29;;;;;;;4.32;2.33;;;17.80;71.00;;;;;;4990441;28;20394;-58
2023/03/21 12:58:04;;;;;;;5.05;2.38;;;17.70;78.90;;;;;;5007187;28;20037;-58
2023/03/21 13:00:33;;;;;;;6.28;2.40;;;17.80;74.30;;;;;;5007984;28;20037;-59
2023/03/21 13:03:01;;;;;;;5.25;2.45;;;17.80;76.60;;;;;;5007821;28;20111;-59
2023/03/21 13:05:31;;;;;;;4.85;2.03;;;17.70;73.00;;;;;;4987307;28;20406;-59
2023/03/21 13:08:11;;;;;;;2.35;1.88;;;17.80;71.30;;;;;;5007421;28;20034;-58
2023/03/21 13:10:40;;;;;;;4.45;2.75;;;17.80;73.40;;;;;;5005876;28;20034;-59